createdAt,value
2018-12-02T00:01:21.460Z,34.63
2018-12-02T00:03:50.342Z,34.77
2018-12-02T00:06:19.257Z,37.47
2018-12-02T00:08:48.133Z,37.33
2018-12-02T00:11:17.297Z,32.73
2018-12-02T00:13:46.421Z,40.73
2018-12-02T00:16:15.482Z,34.67
2018-12-02T00:18:44.630Z,40.63
2018-12-02T00:21:13.544Z,40.10
2018-12-02T00:23:42.459Z,39.60
2018-12-02T00:26:11.488Z,56.53
2018-12-02T00:28:40.780Z,32.77
2018-12-02T00:31:10.291Z,29.50
2018-12-02T00:33:40.501Z,38.93
2018-12-02T00:36:09.663Z,31.23
2018-12-02T00:38:38.546Z,35.03
2018-12-02T00:41:07.440Z,29.40
2018-12-02T00:43:36.271Z,27.70
2018-12-02T00:46:05.436Z,32.60
2018-12-02T00:48:35.293Z,26.83
2018-12-02T00:51:04.187Z,33.80
2018-12-02T00:53:33.022Z,34.60
2018-12-02T00:56:01.912Z,29.43
2018-12-02T00:58:30.857Z,30.03
2018-12-02T01:00:59.842Z,31.23
2018-12-02T01:03:28.744Z,26.53
2018-12-02T01:05:57.637Z,31.60
2018-12-02T01:08:26.949Z,25.77
2018-12-02T01:10:55.945Z,37.43
2018-12-02T01:13:24.864Z,28.87
2018-12-02T01:15:54.224Z,29.60
2018-12-02T01:18:23.215Z,32.60
2018-12-02T01:20:52.074Z,26.13
2018-12-02T01:23:20.934Z,27.57
2018-12-02T01:25:50.108Z,25.60
2018-12-02T01:28:18.978Z,32.83
2018-12-02T01:30:47.873Z,26.90
2018-12-02T01:33:16.829Z,27.50
2018-12-02T01:35:45.708Z,29.63
2018-12-02T01:38:14.750Z,24.10
2018-12-02T01:40:47.839Z,24.90
2018-12-02T01:43:16.715Z,28.07
2018-12-02T01:45:45.511Z,31.70
2018-12-02T01:48:14.592Z,26.50
2018-12-02T01:50:43.408Z,34.90
2018-12-02T01:53:12.851Z,27.33
2018-12-02T01:55:41.737Z,28.27
2018-12-02T01:58:10.714Z,28.07
2018-12-02T02:00:39.877Z,26.60
2018-12-02T02:03:08.779Z,26.23
2018-12-02T02:05:38.005Z,29.77
2018-12-02T02:08:07.265Z,29.93
2018-12-02T02:10:36.138Z,29.03
2018-12-02T02:13:05.157Z,27.30
2018-12-02T02:15:33.993Z,24.33
2018-12-02T02:18:02.827Z,30.97
2018-12-02T02:20:31.708Z,28.70
2018-12-02T02:23:00.516Z,24.80
2018-12-02T02:25:29.450Z,26.87
2018-12-02T02:27:59.331Z,32.87
2018-12-02T02:30:29.451Z,28.93
2018-12-02T02:32:58.297Z,29.63
2018-12-02T02:35:27.219Z,26.53
2018-12-02T02:37:57.331Z,30.83
2018-12-02T02:40:30.430Z,26.77
2018-12-02T02:42:59.285Z,25.10
2018-12-02T02:45:28.136Z,26.30
2018-12-02T02:47:56.935Z,22.87
2018-12-02T02:50:26.805Z,22.10
2018-12-02T02:52:59.279Z,29.30
2018-12-02T02:55:28.382Z,28.40
2018-12-02T02:57:57.462Z,24.47
2018-12-02T03:00:27.216Z,29.13
2018-12-02T03:02:56.400Z,28.50
2018-12-02T03:05:25.328Z,27.43
2018-12-02T03:07:54.181Z,24.53
2018-12-02T03:10:23.188Z,27.23
2018-12-02T03:12:54.004Z,27.43
2018-12-02T03:15:24.106Z,26.77
2018-12-02T03:17:53.018Z,27.27
2018-12-02T03:20:22.912Z,29.20
2018-12-02T03:22:53.805Z,30.53
2018-12-02T03:25:24.484Z,28.60
2018-12-02T03:27:53.418Z,29.87
2018-12-02T03:30:23.298Z,31.50
2018-12-02T03:32:52.282Z,26.23
2018-12-02T03:35:23.319Z,28.70
2018-12-02T03:37:52.607Z,27.80
2018-12-02T03:40:22.778Z,23.10
2018-12-02T03:42:52.860Z,27.10
2018-12-02T03:45:25.536Z,27.53
2018-12-02T03:47:54.472Z,24.00
2018-12-02T03:50:24.073Z,27.00
2018-12-02T03:52:53.026Z,29.00
2018-12-02T03:55:21.940Z,26.07
2018-12-02T03:57:57.102Z,25.77
2018-12-02T04:00:26.930Z,28.30
2018-12-02T04:02:56.786Z,29.93
2018-12-02T04:05:27.304Z,29.60
2018-12-02T04:07:56.194Z,25.37
2018-12-02T04:10:25.061Z,27.50
2018-12-02T04:12:54.390Z,25.43
2018-12-02T04:15:24.662Z,29.30
2018-12-02T04:17:53.607Z,23.50
2018-12-02T04:20:22.651Z,25.80
2018-12-02T04:22:52.417Z,25.83
2018-12-02T04:25:23.497Z,31.30
2018-12-02T04:27:52.366Z,27.90
2018-12-02T04:30:22.034Z,26.43
2018-12-02T04:32:51.755Z,29.03
2018-12-02T04:35:24.728Z,30.17
2018-12-02T04:37:53.666Z,29.03
2018-12-02T04:40:22.945Z,27.63
2018-12-02T04:42:51.830Z,26.73
2018-12-02T04:45:21.028Z,22.67
2018-12-02T04:47:50.122Z,24.10
2018-12-02T04:50:20.147Z,22.70
2018-12-02T04:52:49.344Z,26.13
2018-12-02T04:55:18.339Z,25.37
2018-12-02T04:57:47.544Z,29.07
2018-12-02T05:00:17.255Z,25.00
2018-12-02T05:02:47.215Z,24.60
2018-12-02T05:05:17.421Z,20.30
2018-12-02T05:07:46.282Z,27.60
2018-12-02T05:10:16.562Z,23.07
2018-12-02T05:12:45.683Z,30.67
2018-12-02T05:15:15.470Z,26.43
2018-12-02T05:17:44.387Z,22.43
2018-12-02T05:20:21.708Z,24.50
2018-12-02T05:22:50.648Z,29.50
2018-12-02T05:25:19.998Z,27.23
2018-12-02T05:27:48.850Z,21.03
2018-12-02T05:30:18.719Z,27.27
2018-12-02T05:32:48.980Z,22.73
2018-12-02T05:35:17.923Z,27.80
2018-12-02T05:37:46.897Z,26.80
2018-12-02T05:40:17.595Z,27.60
2018-12-02T05:42:46.431Z,27.03
2018-12-02T05:45:17.421Z,25.97
2018-12-02T05:47:46.331Z,28.90
2018-12-02T05:50:22.281Z,27.00
2018-12-02T05:52:52.296Z,24.47
2018-12-02T05:55:22.847Z,28.43
2018-12-02T05:57:51.771Z,22.00
2018-12-02T06:00:21.744Z,21.10
2018-12-02T06:02:50.661Z,21.60
2018-12-02T06:05:19.524Z,23.53
2018-12-02T06:07:48.728Z,22.93
2018-12-02T06:10:20.931Z,25.67
2018-12-02T06:12:49.885Z,24.63
2018-12-02T06:15:20.511Z,27.63
2018-12-02T06:17:50.050Z,21.90
2018-12-02T06:20:22.931Z,27.80
2018-12-02T06:22:52.965Z,26.90
2018-12-02T06:25:21.889Z,21.80
2018-12-02T06:27:50.753Z,24.97
2018-12-02T06:30:22.355Z,21.43
2018-12-02T06:32:55.246Z,19.97
2018-12-02T06:35:24.137Z,26.17
2018-12-02T06:37:54.345Z,23.30
2018-12-02T06:40:24.349Z,22.90
2018-12-02T06:42:53.459Z,23.43
2018-12-02T06:45:22.730Z,23.60
2018-12-02T06:47:51.703Z,28.80
2018-12-02T06:50:25.403Z,22.53
2018-12-02T06:52:55.019Z,27.23
2018-12-02T06:55:30.467Z,26.33
2018-12-02T06:58:29.727Z,25.40
2018-12-02T07:01:12.063Z,24.70
2018-12-02T07:03:58.020Z,23.83
2018-12-02T07:06:27.334Z,23.00
2018-12-02T07:08:56.251Z,23.50
2018-12-02T07:11:25.170Z,26.50
2018-12-02T07:13:54.027Z,24.53
2018-12-02T07:16:23.076Z,23.73
2018-12-02T07:18:54.469Z,29.73
2018-12-02T07:21:26.446Z,24.37
2018-12-02T07:24:00.564Z,28.53
2018-12-02T07:26:33.348Z,22.70
2018-12-02T07:29:01.758Z,23.83
2018-12-02T07:31:30.853Z,23.40
2018-12-02T07:33:59.977Z,23.30
2018-12-02T07:36:28.930Z,25.03
2018-12-02T07:39:23.497Z,23.50
2018-12-02T07:41:52.582Z,23.83
2018-12-02T07:44:21.822Z,24.80
2018-12-02T07:46:50.997Z,23.53
2018-12-02T07:49:19.915Z,30.93
2018-12-02T07:51:48.802Z,24.23
2018-12-02T07:54:17.918Z,23.20
2018-12-02T07:56:47.203Z,26.47
2018-12-02T07:59:16.469Z,23.20
2018-12-02T08:01:45.489Z,22.70
2018-12-02T08:04:14.431Z,21.83
2018-12-02T08:06:44.355Z,24.10
2018-12-02T08:09:13.399Z,25.63
2018-12-02T08:11:42.594Z,21.20
2018-12-02T08:14:12.510Z,22.60
2018-12-02T08:16:41.680Z,23.60
2018-12-02T08:19:10.643Z,25.70
2018-12-02T08:21:39.902Z,22.40
2018-12-02T08:24:08.801Z,23.60
2018-12-02T08:26:37.695Z,30.93
2018-12-02T08:29:06.665Z,22.07
2018-12-02T08:31:35.800Z,26.03
2018-12-02T08:34:04.884Z,23.50
2018-12-02T08:36:34.115Z,29.17
2018-12-02T08:39:06.822Z,30.70
2018-12-02T08:41:35.758Z,21.37
2018-12-02T08:44:04.856Z,28.23
2018-12-02T08:46:33.945Z,22.57
2018-12-02T08:49:02.827Z,21.70
2018-12-02T08:51:31.722Z,22.73
2018-12-02T08:54:00.581Z,23.67
2018-12-02T08:56:29.420Z,23.00
2018-12-02T08:58:58.351Z,23.00
2018-12-02T09:01:27.324Z,21.20
2018-12-02T09:03:56.419Z,20.90
2018-12-02T09:06:26.856Z,23.67
2018-12-02T09:08:56.101Z,27.43
2018-12-02T09:11:25.169Z,21.27
2018-12-02T09:13:54.101Z,25.50
2018-12-02T09:16:23.172Z,28.17
2018-12-02T09:18:52.080Z,23.00
2018-12-02T09:21:21.292Z,23.33
2018-12-02T09:23:50.546Z,26.27
2018-12-02T09:26:19.518Z,26.50
2018-12-02T09:28:48.907Z,21.73
2018-12-02T09:31:18.076Z,23.10
2018-12-02T09:33:47.812Z,24.47
2018-12-02T09:36:16.929Z,30.17
2018-12-02T09:38:45.984Z,19.60
2018-12-02T09:41:14.952Z,21.23
2018-12-02T09:43:43.936Z,25.37
2018-12-02T09:46:12.791Z,24.30
2018-12-02T09:48:41.718Z,29.33
2018-12-02T09:51:10.792Z,19.53
2018-12-02T09:53:40.212Z,21.77
2018-12-02T09:58:48.700Z,24.33
2018-12-02T10:01:17.805Z,20.43
2018-12-02T10:03:46.755Z,27.03
2018-12-02T10:06:15.831Z,26.90
2018-12-02T10:08:44.720Z,26.73
2018-12-02T10:11:13.561Z,21.30
2018-12-02T10:13:42.465Z,21.87
2018-12-02T10:16:15.649Z,22.53
2018-12-02T10:18:41.507Z,23.07
2018-12-02T10:21:12.639Z,20.90
2018-12-02T10:23:42.009Z,20.60
2018-12-02T10:26:12.061Z,20.60
2018-12-02T10:28:41.480Z,21.43
2018-12-02T10:31:10.673Z,21.10
2018-12-02T10:33:39.738Z,19.03
2018-12-02T10:36:09.520Z,20.30
2018-12-02T10:38:38.484Z,20.27
2018-12-02T10:41:07.725Z,21.50
2018-12-02T10:43:37.091Z,21.57
2018-12-02T10:46:06.289Z,21.43
2018-12-02T10:48:35.357Z,25.97
2018-12-02T10:51:05.203Z,24.77
2018-12-02T10:53:34.548Z,19.93
2018-12-02T10:56:03.748Z,24.33
2018-12-02T10:58:34.252Z,17.80
2018-12-02T11:01:09.617Z,19.83
2018-12-02T11:03:38.576Z,18.73
2018-12-02T11:06:07.823Z,17.60
2018-12-02T11:08:36.721Z,21.40
2018-12-02T11:11:06.211Z,24.03
2018-12-02T11:13:35.113Z,17.37
2018-12-02T11:16:04.328Z,19.90
2018-12-02T11:18:33.324Z,17.60
2018-12-02T11:21:02.731Z,19.90
2018-12-02T11:23:31.677Z,19.47
2018-12-02T11:26:01.323Z,21.70
2018-12-02T11:28:30.468Z,20.43
2018-12-02T11:30:59.411Z,20.37
2018-12-02T11:33:28.500Z,21.83
2018-12-02T11:35:57.640Z,20.77
2018-12-02T11:38:26.620Z,20.67
2018-12-02T11:40:55.660Z,27.00
2018-12-02T11:43:24.559Z,18.30
2018-12-02T11:45:53.504Z,20.40
2018-12-02T11:48:22.764Z,23.80
2018-12-02T11:50:52.078Z,21.53
2018-12-02T11:53:21.017Z,18.93
2018-12-02T11:55:50.027Z,19.17
2018-12-02T11:58:19.084Z,23.40
2018-12-02T12:00:48.419Z,16.47
2018-12-02T12:03:17.312Z,20.17
2018-12-02T12:05:46.721Z,18.40
2018-12-02T12:08:15.693Z,15.10
2018-12-02T12:10:44.592Z,15.13
2018-12-02T12:13:13.611Z,16.10
2018-12-02T12:15:42.496Z,16.97
2018-12-02T12:18:11.315Z,19.00
2018-12-02T12:20:42.475Z,18.80
2018-12-02T12:23:13.821Z,18.40
2018-12-02T12:25:43.314Z,16.40
2018-12-02T12:28:12.619Z,18.83
2018-12-02T12:30:41.608Z,23.03
2018-12-02T12:33:11.608Z,27.53
2018-12-02T12:35:46.197Z,15.97
2018-12-02T12:38:15.438Z,17.47
2018-12-02T12:40:45.097Z,19.27
2018-12-02T12:43:20.763Z,20.17
2018-12-02T12:45:49.880Z,23.90
2018-12-02T12:48:18.785Z,16.70
2018-12-02T12:50:47.729Z,20.10
2018-12-02T12:53:16.806Z,18.40
2018-12-02T12:55:50.811Z,19.60
2018-12-02T12:58:16.303Z,18.63
2018-12-02T13:00:45.279Z,18.40
2018-12-02T13:03:14.449Z,18.70
2018-12-02T13:05:43.534Z,20.03
2018-12-02T13:08:14.096Z,19.30
2018-12-02T13:10:43.622Z,21.37
2018-12-02T13:13:12.810Z,21.93
2018-12-02T13:15:42.092Z,18.53
2018-12-02T13:18:11.800Z,17.87
2018-12-02T13:20:44.469Z,19.00
2018-12-02T13:23:13.818Z,18.50
2018-12-02T13:25:43.128Z,20.13
2018-12-02T13:28:12.142Z,19.97
2018-12-02T13:30:42.017Z,21.70
2018-12-02T13:33:11.112Z,19.40
2018-12-02T13:35:41.312Z,16.83
2018-12-02T13:38:10.321Z,16.27
2018-12-02T13:40:40.970Z,19.13
2018-12-02T13:43:12.852Z,21.00
2018-12-02T13:45:42.092Z,21.60
2018-12-02T13:48:11.037Z,21.00
2018-12-02T13:50:40.043Z,18.33
2018-12-02T13:53:09.112Z,18.60
2018-12-02T13:55:38.262Z,20.40
2018-12-02T13:58:08.501Z,21.27
2018-12-02T14:00:39.325Z,21.60
2018-12-02T14:03:16.023Z,19.17
2018-12-02T14:05:50.107Z,18.97
2018-12-02T14:08:19.036Z,19.97
2018-12-02T14:10:48.109Z,17.53
2018-12-02T14:13:22.620Z,19.00
2018-12-02T14:16:16.297Z,18.43
2018-12-02T14:18:46.178Z,17.17
2018-12-02T14:21:15.380Z,20.93
2018-12-02T14:23:45.680Z,17.00
2018-12-02T14:26:17.905Z,18.97
2018-12-02T14:28:54.624Z,18.00
2018-12-02T14:31:23.759Z,19.10
2018-12-02T14:33:52.696Z,18.83
2018-12-02T14:36:21.747Z,19.60
2018-12-02T14:38:51.045Z,18.40
2018-12-02T14:41:20.038Z,17.83
2018-12-02T14:43:49.082Z,20.93
2018-12-02T14:46:18.065Z,18.07
2018-12-02T14:48:47.013Z,17.83
2018-12-02T14:51:15.945Z,20.30
2018-12-02T14:53:44.957Z,17.40
2018-12-02T14:56:13.962Z,22.00
2018-12-02T14:58:43.143Z,22.23
2018-12-02T15:01:12.636Z,18.00
2018-12-02T15:03:41.596Z,19.23
2018-12-02T15:06:10.928Z,20.83
2018-12-02T15:08:40.106Z,21.17
2018-12-02T15:11:09.184Z,25.73
2018-12-02T15:13:38.246Z,19.30
2018-12-02T15:16:07.755Z,20.90
2018-12-02T15:18:37.361Z,28.80
2018-12-02T15:21:06.756Z,31.90
2018-12-02T15:23:35.847Z,26.63
2018-12-02T15:26:05.651Z,21.97
2018-12-02T15:28:34.803Z,20.93
2018-12-02T15:31:03.772Z,20.93
2018-12-02T15:33:32.946Z,21.73
2018-12-02T15:36:01.935Z,22.57
2018-12-02T15:38:31.362Z,24.40
2018-12-02T15:41:00.481Z,24.10
2018-12-02T15:43:30.353Z,21.87
2018-12-02T15:45:59.268Z,20.93
2018-12-02T15:48:28.568Z,23.57
2018-12-02T15:50:57.868Z,23.07
2018-12-02T15:53:26.981Z,26.70
2018-12-02T15:55:56.560Z,23.60
2018-12-02T15:58:25.821Z,20.00
2018-12-02T16:00:55.665Z,19.90
2018-12-02T16:03:25.379Z,23.60
2018-12-02T16:05:54.690Z,31.73
2018-12-02T16:08:28.431Z,24.60
2018-12-02T16:10:57.963Z,26.53
2018-12-02T16:13:28.953Z,20.97
2018-12-02T16:15:58.713Z,26.80
2018-12-02T16:18:27.996Z,21.80
2018-12-02T16:20:57.281Z,22.13
2018-12-02T16:23:28.837Z,20.57
2018-12-02T16:25:57.713Z,21.17
2018-12-02T16:28:27.419Z,23.33
2018-12-02T16:30:56.984Z,21.60
2018-12-02T16:33:26.046Z,23.23
2018-12-02T16:35:55.163Z,22.03
2018-12-02T16:38:24.225Z,21.90
2018-12-02T16:40:54.085Z,24.13
2018-12-02T16:43:23.337Z,21.60
2018-12-02T16:45:52.851Z,24.63
2018-12-02T16:48:21.847Z,22.53
2018-12-02T16:50:51.079Z,24.67
2018-12-02T16:53:23.709Z,22.10
2018-12-02T16:56:02.903Z,24.07
2018-12-02T16:58:52.164Z,22.27
2018-12-02T17:01:22.993Z,21.60
2018-12-02T17:03:55.431Z,22.30
2018-12-02T17:06:24.338Z,22.47
2018-12-02T17:08:54.150Z,24.80
2018-12-02T17:11:23.178Z,22.80
2018-12-02T17:13:52.384Z,30.47
2018-12-02T17:16:21.547Z,24.50
2018-12-02T17:18:50.526Z,25.33
2018-12-02T17:21:19.637Z,26.07
2018-12-02T17:23:49.301Z,21.53
2018-12-02T17:26:18.749Z,23.40
2018-12-02T17:28:47.987Z,22.93
2018-12-02T17:31:22.199Z,27.77
2018-12-02T17:33:51.196Z,30.07
2018-12-02T17:36:20.224Z,24.80
2018-12-02T17:38:51.126Z,26.17
2018-12-02T17:41:19.980Z,23.33
2018-12-02T17:43:49.494Z,33.27
2018-12-02T17:46:18.753Z,26.77
2018-12-02T17:48:48.591Z,26.20
2018-12-02T17:51:18.148Z,26.80
2018-12-02T17:53:48.836Z,23.10
2018-12-02T17:56:19.404Z,27.70
2018-12-02T17:58:48.818Z,25.20
2018-12-02T18:01:20.624Z,24.27
2018-12-02T18:03:50.411Z,24.03
2018-12-02T18:06:19.757Z,25.23
2018-12-02T18:08:48.794Z,32.40
2018-12-02T18:11:17.789Z,21.83
2018-12-02T18:13:47.141Z,24.10
2018-12-02T18:16:16.349Z,22.20
2018-12-02T18:18:45.432Z,21.87
2018-12-02T18:21:14.637Z,22.73
2018-12-02T18:23:43.808Z,26.23
2018-12-02T18:26:13.430Z,25.13
2018-12-02T18:28:42.435Z,28.53
2018-12-02T18:31:11.579Z,31.67
2018-12-02T18:33:40.602Z,24.93
2018-12-02T18:36:13.898Z,25.03
2018-12-02T18:38:44.221Z,24.63
2018-12-02T18:41:16.474Z,24.33
2018-12-02T18:43:45.775Z,24.20
2018-12-02T18:46:15.893Z,24.47
2018-12-02T18:48:45.135Z,25.90
2018-12-02T18:51:14.266Z,26.30
2018-12-02T18:53:44.396Z,24.57
2018-12-02T18:56:16.485Z,24.83
2018-12-02T18:58:43.254Z,26.63
2018-12-02T19:01:14.312Z,24.67
2018-12-02T19:03:44.006Z,25.77
2018-12-02T19:06:13.020Z,24.03
2018-12-02T19:08:43.786Z,23.53
2018-12-02T19:11:14.178Z,25.30
2018-12-02T19:13:43.791Z,24.00
2018-12-02T19:16:12.905Z,25.23
2018-12-02T19:18:42.868Z,23.93
2018-12-02T19:21:15.171Z,24.87
2018-12-02T19:23:44.091Z,25.40
2018-12-02T19:26:14.958Z,30.23
2018-12-02T19:28:44.674Z,22.67
2018-12-02T19:31:15.680Z,22.77
2018-12-02T19:33:45.703Z,25.50
2018-12-02T19:36:24.661Z,22.10
2018-12-02T19:38:53.916Z,20.93
2018-12-02T19:41:23.453Z,24.10
2018-12-02T19:46:30.221Z,22.07
2018-12-02T19:48:59.534Z,22.03
2018-12-02T19:51:28.550Z,30.00
2018-12-02T19:53:57.858Z,24.03
2018-12-02T19:56:26.883Z,29.50
2018-12-02T19:58:56.112Z,22.20
2018-12-02T20:01:25.497Z,24.57
2018-12-02T20:03:54.633Z,22.70
2018-12-02T20:06:25.135Z,21.83
2018-12-02T20:08:54.771Z,22.43
2018-12-02T20:11:24.469Z,18.67
2018-12-02T20:13:53.516Z,21.17
2018-12-02T20:16:22.867Z,19.63
2018-12-02T20:18:52.085Z,18.73
2018-12-02T20:21:22.902Z,18.23
2018-12-02T20:23:57.181Z,22.87
2018-12-02T20:26:26.971Z,19.90
2018-12-02T20:28:58.177Z,22.17
2018-12-02T20:31:28.811Z,19.90
2018-12-02T20:33:58.628Z,22.87
2018-12-02T20:36:27.654Z,19.40
2018-12-02T20:38:57.289Z,21.30
2018-12-02T20:41:26.515Z,19.43
2018-12-02T20:43:55.474Z,23.13
2018-12-02T20:46:24.927Z,23.30
2018-12-02T20:48:53.933Z,18.80
2018-12-02T20:51:23.071Z,23.17
2018-12-02T20:53:53.155Z,19.83
2018-12-02T20:56:22.662Z,17.73
2018-12-02T20:58:51.685Z,17.43
2018-12-02T21:01:21.291Z,21.83
2018-12-02T21:03:50.780Z,22.43
2018-12-02T21:06:22.435Z,20.67
2018-12-02T21:08:51.464Z,21.20
2018-12-02T21:11:22.631Z,18.17
2018-12-02T21:13:51.726Z,17.87
2018-12-02T21:16:21.901Z,19.13
2018-12-02T21:18:51.069Z,19.10
2018-12-02T21:21:20.067Z,18.47
2018-12-02T21:23:49.811Z,21.27
2018-12-02T21:26:18.937Z,21.37
2018-12-02T21:28:48.342Z,18.73
2018-12-02T21:31:17.451Z,23.40
2018-12-02T21:33:46.692Z,20.27
2018-12-02T21:36:16.049Z,20.90
2018-12-02T21:38:45.247Z,21.23
2018-12-02T21:41:14.459Z,21.10
2018-12-02T21:43:43.500Z,22.10
2018-12-02T21:46:13.497Z,21.47
2018-12-02T21:48:42.615Z,24.90
2018-12-02T21:51:12.030Z,21.73
2018-12-02T21:53:41.565Z,19.60
2018-12-02T21:56:16.926Z,18.83
2018-12-02T21:58:46.590Z,22.27
2018-12-02T22:01:15.922Z,22.10
2018-12-02T22:03:45.523Z,20.13
2018-12-02T22:06:14.470Z,26.40
2018-12-02T22:08:43.437Z,29.63
2018-12-02T22:11:12.502Z,17.13
2018-12-02T22:13:43.586Z,25.37
2018-12-02T22:16:11.026Z,20.20
2018-12-02T22:18:40.176Z,18.37
2018-12-02T22:21:09.471Z,16.60
2018-12-02T22:23:38.417Z,19.40
2018-12-02T22:26:07.608Z,19.23
2018-12-02T22:28:36.839Z,23.50
2018-12-02T22:31:06.199Z,18.67
2018-12-02T22:33:35.164Z,17.90
2018-12-02T22:36:04.617Z,20.10
2018-12-02T22:38:33.638Z,19.03
2018-12-02T22:41:02.855Z,18.97
2018-12-02T22:43:31.805Z,19.20
2018-12-02T22:46:01.042Z,20.80
2018-12-02T22:48:29.954Z,23.03
2018-12-02T22:50:58.820Z,21.50
2018-12-02T22:53:27.619Z,22.63
2018-12-02T22:55:56.524Z,21.60
2018-12-02T22:58:25.706Z,17.50
2018-12-02T23:00:59.656Z,19.00
2018-12-02T23:03:28.563Z,16.13
2018-12-02T23:05:57.498Z,17.60
2018-12-02T23:08:26.729Z,29.50
2018-12-02T23:10:55.768Z,21.37
2018-12-02T23:13:24.842Z,21.10
2018-12-02T23:15:53.751Z,20.57
2018-12-02T23:18:22.838Z,22.77
2018-12-02T23:20:51.792Z,20.43
2018-12-02T23:23:21.140Z,22.60
2018-12-02T23:25:50.283Z,17.80
2018-12-02T23:28:19.123Z,17.13
2018-12-02T23:30:48.117Z,19.20
2018-12-02T23:33:17.624Z,19.23
2018-12-02T23:35:47.522Z,21.93
2018-12-02T23:38:17.510Z,17.67
2018-12-02T23:40:46.952Z,20.07
2018-12-02T23:43:16.225Z,19.63
2018-12-02T23:45:45.292Z,21.63
2018-12-02T23:48:14.279Z,23.37
2018-12-02T23:50:43.474Z,21.93
2018-12-02T23:53:12.393Z,19.57
2018-12-02T23:55:41.334Z,18.47
2018-12-02T23:58:10.276Z,19.27
